Defoe, Kentucky
Current Conditions -  °F | °C
As of 3:53 PM on Saturday 25 Oct 2014 (Local Time) from KFFT Reporting Station
Clear Clear  
Wind Chill: 72°   Ceiling: Unl
Heat Index: 72°   Visibility: 10mi
Dew Point: 59°   Wind: 9mph
Humidity: 64%   Direction: 260°W
Pressure: 29.95"   Gusts: NA
Location:  38.369°N, 85.0622°W
Report Text: KFFT 251953Z AUTO 26008KT 10SM CLR 22/15 A2995 RMK AO2 SLP140 T02220150
Loading
Personal Weather Stations






























Interactive Weather Map New forecast layout! Learn more

10-Day Weather Forecast

Advertisements
Track Severe Weather on mobile